Aviation Digital Data Service (ADDS)

Output produced by METARs form (1028 UTC 25 June 2017)
found at http://aviationweather.gov/adds/metars/
 
KLBE 250907Z 2509/2606 22004KT P6SM SCT080 
     TEMPO 2509/2513 3SM BR 
     FM251500 26010KT P6SM BKN060